M I D A S
Marine Information and Data Acquisition System
Tripno 419 of the Zeeleeuw from 2003-01-24 08:17:28 to 2003-01-24 12:49:23
Back to CruiseResearch ActivitiesStationsMapUnderway DataData graphs

EquipmentUnitsComment
TimeDGPSUTC
LatitudeDGPSDM.mWGS84
LongitudeDGPSDM.mWGS84
TemperatureSBE03/SBE38deg celciusITS90
ConductivitySBE21S/mITS90
SalinitySBE21 Practical Salinity Units
ChlorophylAChelsea fluorimeterg/lCalibrated in Aceton
Missing or incorrect values are displayed as -999
Sea surface data collected by the RV Zeeleeuw from 2003-01-24 08:17:28 to 2003-01-24 12:49:23
Time Latitude Longitude Temperature Conductivity Salinity ChlorophylA
2003-01-24 08:18:29 51°13.624 2°55.986 -999 2.068028 13.45265 -0.882377
2003-01-24 08:19:29 51°13.655 2°55.88 -999 2.068028 13.453081 -0.848668
2003-01-24 08:20:31 51°13.686 2°55.778 -999 2.067818 13.452454 -0.848668
2003-01-24 08:21:33 51°13.696 2°55.754 -999 2.067818 13.453101 -0.814958
2003-01-24 08:22:31 51°13.724 2°55.763 -999 2.067818 13.453101 -0.848668
2003-01-24 08:23:33 51°13.718 2°55.764 -999 2.067923 13.453199 -0.848668
2003-01-24 08:24:33 51°13.727 2°55.744 -999 2.067713 13.451708 -0.848668
2003-01-24 08:25:32 51°13.805 2°55.654 -999 2.067608 13.452042 -0.848668
2003-01-24 08:26:33 51°13.913 2°55.572 -999 2.067608 13.453336 -0.848668
2003-01-24 08:27:33 51°14.025 2°55.493 -999 2.067503 13.453023 -0.848668
2003-01-24 08:28:33 51°14.131 2°55.413 -999 2.067503 13.453023 -0.848668
2003-01-24 08:29:33 51°14.237 2°55.314 -999 2.067188 13.451434 -0.848668
2003-01-24 08:30:33 51°14.326 2°55.18 -999 2.066978 13.449943 -0.848668
2003-01-24 08:31:33 51°14.395 2°54.979 -999 2.066348 13.44504 -0.848668
2003-01-24 08:32:33 51°14.42 2°54.663 -999 2.067293 13.452827 -0.848668
2003-01-24 08:33:33 51°14.436 2°54.319 -999 2.067083 13.451983 -0.848668
2003-01-24 08:34:33 51°14.358 2°54.009 -999 2.066768 13.451042 -0.814958
2003-01-24 08:35:33 51°14.264 2°53.702 -999 2.066768 13.451042 -0.848668
2003-01-24 08:36:33 51°14.165 2°53.39 -999 2.066978 13.45318 -0.848668
2003-01-24 08:37:33 51°14.064 2°53.071 -999 2.066873 13.452867 -0.848668
2003-01-24 08:38:33 51°13.961 2°52.751 -999 2.066663 13.452239 -0.848668
2003-01-24 08:39:33 51°13.857 2°52.431 -999 2.066663 13.452239 -0.882377
2003-01-24 08:40:33 51°13.745 2°52.108 -999 2.066663 13.453318 -0.848668
2003-01-24 08:41:33 51°13.636 2°51.774 -999 2.066348 13.451945 -0.848668
2003-01-24 08:42:33 51°13.531 2°51.434 -999 2.066348 13.452593 -0.814958
2003-01-24 08:43:33 51°13.43 2°51.088 -999 2.066243 13.452711 -0.848668
2003-01-24 08:44:33 51°13.326 2°50.743 -999 2.066138 13.452181 -0.848668
2003-01-24 08:45:33 51°13.223 2°50.396 -999 2.066348 13.454321 -0.848668
2003-01-24 08:46:33 51°13.107 2°50.059 -999 2.066033 13.452299 -0.848668
2003-01-24 08:47:33 51°12.983 2°49.727 -999 2.065718 13.450061 -0.848668
2003-01-24 08:48:33 51°12.861 2°49.393 -999 2.065508 13.44857 -0.848668
2003-01-24 08:49:33 51°12.739 2°49.06 -999 2.065613 13.450827 -0.848668
2003-01-24 08:50:33 51°12.616 2°48.726 -999 2.065823 13.453183 -0.848668
2003-01-24 08:51:33 51°12.493 2°48.392 -999 2.065508 13.451161 -0.814958
2003-01-24 08:52:33 51°12.362 2°48.065 -999 2.065403 13.451063 -0.882377
2003-01-24 08:53:33 51°12.235 2°47.736 -999 2.065403 13.451279 -0.848668
2003-01-24 08:54:33 51°12.108 2°47.403 -999 2.065193 13.450003 -0.848668
2003-01-24 08:55:33 51°11.979 2°47.071 -999 2.065298 13.451398 -0.848668
2003-01-24 08:56:33 51°11.85 2°46.74 -999 2.065088 13.450338 -0.848668
2003-01-24 08:57:33 51°11.719 2°46.413 -999 2.064668 13.447569 -0.814958
2003-01-24 08:58:33 51°11.59 2°46.086 -999 2.064878 13.449061 -0.882377
2003-01-24 08:59:33 51°11.461 2°45.759 -999 2.064563 13.447471 -0.848668
2003-01-24 09:00:33 51°11.355 2°45.411 -999 2.064668 13.448649 -0.848668
2003-01-24 09:01:32 51°11.274 2°45.051 -999 2.064668 13.44973 -0.814958
2003-01-24 09:02:33 51°11.186 2°44.681 -999 2.064563 13.4492 -0.848668
2003-01-24 09:03:33 51°11.112 2°44.31 -999 2.064563 13.4492 -0.848668
2003-01-24 09:04:33 51°11.041 2°43.937 -999 2.064458 13.449318 -0.848668
2003-01-24 09:05:33 51°10.971 2°43.563 -999 2.064668 13.451459 -0.848668
2003-01-24 09:06:33 51°10.905 2°43.188 -999 2.064353 13.450084 -0.848668
2003-01-24 09:07:33 51°10.839 2°42.812 -999 2.064143 13.448375 -0.848668
2003-01-24 09:08:33 51°10.774 2°42.435 -999 2.064248 13.450202 -0.882377
2003-01-24 09:09:33 51°10.708 2°42.056 -999 2.064143 13.449456 -0.848668
2003-01-24 09:10:33 51°10.653 2°41.676 -999 2.064143 13.450537 -0.882377
2003-01-24 09:11:33 51°10.598 2°41.296 -999 2.064143 13.450969 -0.848668
2003-01-24 09:12:33 51°10.548 2°40.916 -999 2.063618 13.447453 -0.848668
2003-01-24 09:13:33 51°10.491 2°40.539 -999 2.063723 13.448848 -0.814958
2003-01-24 09:14:33 51°10.437 2°40.16 -999 2.063513 13.447355 -0.848668
2003-01-24 09:15:33 51°10.383 2°39.779 -999 2.063618 13.448966 -0.882377
2003-01-24 09:16:33 51°10.327 2°39.399 -999 2.063513 13.44822 -0.848668
2003-01-24 09:17:33 51°10.27 2°39.019 -999 2.063618 13.449615 -0.882377
2003-01-24 09:18:33 51°10.214 2°38.637 -999 2.063198 13.447277 -0.814958
2003-01-24 09:19:33 51°10.152 2°38.258 -999 2.063513 13.44995 -0.814958
2003-01-24 09:20:33 51°10.092 2°37.876 -999 2.063198 13.448359 -0.848668
2003-01-24 09:21:33 51°10.034 2°37.495 -999 2.063198 13.449007 -0.848668
2003-01-24 09:22:33 51°9.973 2°37.116 -999 2.062778 13.446237 -0.848668
2003-01-24 09:23:33 51°9.933 2°36.75 -999 2.062988 13.447946 -0.848668
2003-01-24 09:24:33 51°9.953 2°36.409 -999 2.063093 13.449991 -0.882377
2003-01-24 09:25:33 51°10.014 2°36.079 -999 2.063198 13.450954 -0.814958
2003-01-24 09:26:33 51°10.169 2°35.814 -999 2.062568 13.447339 -0.848668
2003-01-24 09:27:33 51°10.384 2°35.775 -999 2.062988 13.450326 -0.814958
2003-01-24 09:28:33 51°10.586 2°35.928 -999 2.062463 13.449837 -0.882377
2003-01-24 09:29:33 51°10.789 2°36.087 -999 2.063093 13.454102 -0.848668
2003-01-24 09:30:33 51°10.991 2°36.258 -999 2.062043 13.4462 -0.848668
2003-01-24 09:31:33 51°11.192 2°36.429 -999 2.062463 13.448971 -0.882377
2003-01-24 09:32:33 51°11.392 2°36.595 -999 2.062253 13.447477 -0.882377
2003-01-24 09:33:33 51°11.586 2°36.773 -999 2.061833 13.444273 -0.848668
2003-01-24 09:34:33 51°11.777 2°36.959 -999 2.062358 13.44909 -0.848668
2003-01-24 09:35:33 51°11.97 2°37.141 -999 2.061938 13.446102 -0.848668
2003-01-24 09:36:33 51°12.177 2°37.28 -999 2.061518 13.44333 -0.848668
2003-01-24 09:37:33 51°12.386 2°37.419 -999 2.061203 13.440657 -0.814958
2003-01-24 09:38:33 51°12.594 2°37.561 -999 2.061728 13.445257 -0.882377
2003-01-24 09:39:33 51°12.803 2°37.703 -999 2.061623 13.444726 -0.848668
2003-01-24 09:40:33 51°13.001 2°37.876 -999 2.061728 13.44569 -0.882377
2003-01-24 09:41:33 51°13.191 2°38.07 -999 2.061728 13.446339 -0.848668
2003-01-24 09:42:33 51°13.38 2°38.27 -999 2.061203 13.442604 -0.882377
2003-01-24 09:43:33 51°13.569 2°38.47 -999 2.060993 13.441542 -0.848668
2003-01-24 09:44:33 51°13.757 2°38.667 -999 2.061308 13.444 -0.848668
2003-01-24 09:45:33 51°13.953 2°38.837 -999 2.060783 13.44113 -0.814958
2003-01-24 09:46:33 51°14.138 2°38.665 -999 2.060678 13.43995 -0.848668
2003-01-24 09:47:33 51°14.115 2°38.301 -999 2.060888 13.440795 -0.848668
2003-01-24 09:48:33 51°13.999 2°37.958 -999 2.061413 13.44453 -0.848668
2003-01-24 09:49:33 51°13.884 2°37.61 -999 2.061203 13.443253 -0.848668
2003-01-24 09:50:33 51°13.774 2°37.256 -999 2.061203 13.443685 -0.848668
2003-01-24 09:51:33 51°13.671 2°36.897 -999 2.061098 13.443155 -0.848668
2003-01-24 09:52:33 51°13.566 2°36.539 -999 2.061098 13.442938 -0.814958
2003-01-24 09:53:33 51°13.461 2°36.181 -999 2.061098 13.443155 -0.814958
2003-01-24 09:54:33 51°13.359 2°35.821 -999 2.060783 13.440913 -0.882377
2003-01-24 09:55:33 51°13.255 2°35.464 -999 2.060993 13.443057 -0.814958
2003-01-24 09:56:33 51°13.148 2°35.109 -999 2.060888 13.442526 -0.848668
2003-01-24 09:57:33 51°13.039 2°34.754 -999 2.061098 13.444669 -0.814958
2003-01-24 09:58:33 51°12.933 2°34.398 -999 2.060783 13.443077 -0.848668
2003-01-24 09:59:33 51°12.826 2°34.044 -999 2.060468 13.440835 -0.882377
2003-01-24 10:00:33 51°12.721 2°33.686 -999 2.060888 13.444473 -0.848668
2003-01-24 10:01:33 51°12.612 2°33.328 -999 2.060363 13.440737 -0.848668
2003-01-24 10:02:33 51°12.504 2°32.973 -999 2.060468 13.442134 -0.882377
2003-01-24 10:03:33 51°12.394 2°32.618 -999 2.060363 13.441386 -0.848668
2003-01-24 10:04:33 51°12.285 2°32.263 -999 2.060468 13.44235 -0.848668
2003-01-24 10:05:33 51°12.177 2°31.907 -999 2.060363 13.442036 -0.848668
2003-01-24 10:06:33 51°12.069 2°31.552 -999 2.060048 13.440226 -0.814958
2003-01-24 10:07:33 51°11.96 2°31.197 -999 2.060258 13.441937 -0.814958
2003-01-24 10:08:33 51°11.853 2°30.841 -999 2.060048 13.440659 -0.848668
2003-01-24 10:09:33 51°11.744 2°30.486 -999 2.060048 13.441092 -0.882377
2003-01-24 10:10:33 51°11.635 2°30.127 -999 2.060153 13.441839 -0.848668
2003-01-24 10:11:33 51°11.525 2°29.768 -999 2.059733 13.439066 -0.848668
2003-01-24 10:12:33 51°11.418 2°29.405 -999 2.060048 13.441525 -0.848668
2003-01-24 10:13:33 51°11.313 2°29.037 -999 2.059733 13.439932 -0.882377
2003-01-24 10:14:33 51°11.238 2°28.653 -999 2.059943 13.440778 -0.848668
2003-01-24 10:15:33 51°11.212 2°28.252 -999 2.059628 13.439618 -0.848668
2003-01-24 10:16:33 51°11.186 2°27.842 -999 2.059523 13.439303 -0.848668
2003-01-24 10:17:33 51°11.166 2°27.431 -999 2.059838 13.441329 -0.848668
2003-01-24 10:18:33 51°11.15 2°27.02 -999 2.059523 13.439087 -0.882377
2003-01-24 10:19:33 51°11.134 2°26.609 -999 2.059838 13.441978 -0.882377
2003-01-24 10:20:33 51°11.116 2°26.197 -999 2.059418 13.438988 -0.848668
2003-01-24 10:21:33 51°11.098 2°25.788 -999 2.059523 13.439519 -0.882377
2003-01-24 10:22:33 51°11.14 2°25.395 -999 2.060363 13.445932 -0.848668
2003-01-24 10:23:33 51°11.337 2°25.211 -999 2.059733 13.441447 -0.882377
2003-01-24 10:24:33 51°11.541 2°25.267 -999 2.060153 13.448553 -0.848668
2003-01-24 10:25:33 51°11.608 2°25.419 -999 2.059733 13.445562 -0.882377
2003-01-24 10:26:33 51°11.644 2°25.439 -999 2.059628 13.445247 -0.882377
2003-01-24 10:27:33 51°11.668 2°25.43 -999 2.059733 13.444479 -0.814958
2003-01-24 10:28:33 51°11.691 2°25.421 -999 2.060048 13.446072 -0.814958
2003-01-24 10:29:33 51°11.708 2°25.424 -999 2.060153 13.446819 -0.848668
2003-01-24 10:30:33 51°11.715 2°25.438 -999 2.059943 13.445541 -0.848668
2003-01-24 10:31:33 51°11.724 2°25.45 -999 2.059313 13.441921 -0.848668
2003-01-24 10:32:33 51°11.737 2°25.448 -999 2.059838 13.44501 -0.848668
2003-01-24 10:33:33 51°11.748 2°25.434 -999 2.059103 13.439127 -0.848668
2003-01-24 10:34:33 51°11.755 2°25.413 -999 2.059418 13.441153 -0.848668
2003-01-24 10:35:33 51°11.759 2°25.388 -999 2.059628 13.442648 -0.848668
2003-01-24 10:36:33 51°11.76 2°25.362 -999 2.059313 13.440406 -0.848668
2003-01-24 10:37:33 51°11.758 2°25.334 -999 2.059208 13.439658 -0.882377
2003-01-24 10:38:33 51°11.754 2°25.308 -999 2.059103 13.43891 -0.848668
2003-01-24 10:39:33 51°11.751 2°25.282 -999 2.059103 13.439127 -0.814958
2003-01-24 10:40:33 51°11.747 2°25.256 -999 2.059313 13.440622 -0.814958
2003-01-24 10:41:33 51°11.742 2°25.231 -999 2.059313 13.440622 -0.882377
2003-01-24 10:42:33 51°11.738 2°25.206 -999 2.059313 13.440622 -0.848668
2003-01-24 10:43:33 51°11.741 2°25.147 -999 2.059208 13.440091 -0.848668
2003-01-24 10:44:33 51°11.748 2°25.059 -999 2.059628 13.443298 -0.814958
2003-01-24 10:45:33 51°11.769 2°24.989 -999 2.059103 13.43956 -0.848668
2003-01-24 10:46:33 51°11.799 2°24.963 -999 2.059208 13.440741 -0.848668
2003-01-24 10:47:33 51°11.822 2°24.975 -999 2.058998 13.441194 -0.848668
2003-01-24 10:48:33 51°11.854 2°25.002 -999 2.059523 13.4445 -0.848668
2003-01-24 10:49:33 51°11.993 2°25.136 -999 2.059103 13.441725 -0.848668
2003-01-24 10:50:33 51°12.15 2°25.354 -999 2.058998 13.440761 -0.848668
2003-01-24 10:51:33 51°12.305 2°25.581 -999 2.059208 13.443123 -0.848668
2003-01-24 10:52:33 51°12.47 2°25.794 -999 2.059313 13.443437 -0.814958
2003-01-24 10:53:33 51°12.624 2°26.025 -999 2.059103 13.442375 -0.848668
2003-01-24 10:54:33 51°12.777 2°26.258 -999 2.059313 13.443871 -0.882377
2003-01-24 10:55:33 51°12.925 2°26.502 -999 2.058578 13.438853 -0.848668
2003-01-24 10:56:33 51°13.073 2°26.745 -999 2.058473 13.438322 -0.882377
2003-01-24 10:57:33 51°13.22 2°26.994 -999 2.058683 13.439601 -0.848668
2003-01-24 10:58:33 51°13.36 2°27.252 -999 2.058683 13.439817 -0.848668
2003-01-24 10:59:33 51°13.502 2°27.507 -999 2.058683 13.440034 -0.882377
2003-01-24 11:00:33 51°13.645 2°27.763 -999 2.058157 13.436295 -0.848668
2003-01-24 11:01:33 51°13.788 2°28.02 -999 2.058367 13.437574 -0.848668
2003-01-24 11:02:33 51°13.94 2°28.264 -999 2.058262 13.436826 -0.848668
2003-01-24 11:03:33 51°14.091 2°28.513 -999 2.058788 13.440782 -0.848668
2003-01-24 11:04:33 51°14.241 2°28.765 -999 2.058788 13.440998 -0.848668
2003-01-24 11:05:33 51°14.394 2°29.014 -999 2.058578 13.439286 -0.814958
2003-01-24 11:06:33 51°14.547 2°29.265 -999 2.058683 13.439817 -0.814958
2003-01-24 11:07:33 51°14.699 2°29.516 -999 2.058578 13.439719 -0.848668
2003-01-24 11:08:33 51°14.854 2°29.765 -999 2.058367 13.437574 -0.848668
2003-01-24 11:09:33 51°15.007 2°30.016 -999 2.058157 13.436512 -0.848668
2003-01-24 11:10:33 51°15.161 2°30.267 -999 2.058367 13.437574 -0.848668
2003-01-24 11:11:37 51°15.327 2°30.53 -999 2.058578 13.43907 -0.848668
2003-01-24 11:12:38 51°15.486 2°30.779 -999 2.057947 13.434367 -0.848668
2003-01-24 11:13:38 51°15.642 2°31.026 -999 2.058052 13.435547 -0.848668
2003-01-24 11:14:38 51°15.799 2°31.271 -999 2.058367 13.437574 -0.848668
2003-01-24 11:15:38 51°15.957 2°31.513 -999 2.058262 13.436826 -0.848668
2003-01-24 11:16:37 51°16.113 2°31.751 -999 2.058367 13.436924 -0.848668
2003-01-24 11:17:37 51°16.273 2°31.99 -999 2.057842 13.433835 -0.848668
2003-01-24 11:18:37 51°16.435 2°32.226 -999 2.058157 13.435862 -0.814958
2003-01-24 11:19:37 51°16.597 2°32.463 -999 2.058262 13.43661 -0.848668
2003-01-24 11:20:37 51°16.761 2°32.698 -999 2.058367 13.437141 -0.882377
2003-01-24 11:21:37 51°16.924 2°32.934 -999 2.057527 13.430943 -0.848668
2003-01-24 11:22:37 51°17.086 2°33.172 -999 2.058157 13.435429 -0.848668
2003-01-24 11:23:43 51°17.265 2°33.434 -999 2.058052 13.434248 -0.848668
2003-01-24 11:24:43 51°17.427 2°33.669 -999 2.057947 13.433934 -0.848668
2003-01-24 11:25:43 51°17.593 2°33.9 -999 2.058367 13.436708 -0.848668
2003-01-24 11:26:43 51°17.761 2°34.131 -999 2.057842 13.432537 -0.848668
2003-01-24 11:27:43 51°17.912 2°34.376 -999 2.057947 13.433284 -0.814958
2003-01-24 11:28:43 51°18.062 2°34.623 -999 2.057842 13.43232 -0.882377
2003-01-24 11:29:43 51°18.203 2°34.881 -999 2.057317 13.428799 -0.848668
2003-01-24 11:30:43 51°18.342 2°35.141 -999 2.058472 13.43659 -0.848668
2003-01-24 11:31:43 51°18.48 2°35.401 -999 2.058472 13.436806 -0.848668
2003-01-24 11:32:43 51°18.62 2°35.661 -999 2.058157 13.434563 -0.848668
2003-01-24 11:33:43 51°18.759 2°35.923 -999 2.058052 13.433383 -0.848668
2003-01-24 11:34:43 51°18.896 2°36.182 -999 2.058472 13.436157 -0.848668
2003-01-24 11:35:43 51°19.035 2°36.438 -999 2.057842 13.431455 -0.882377
2003-01-24 11:36:43 51°19.169 2°36.702 -999 2.058472 13.43594 -0.848668
2003-01-24 11:37:43 51°19.3 2°36.969 -999 2.058472 13.43594 -0.848668
2003-01-24 11:38:47 51°19.437 2°37.255 -999 2.058157 13.433481 -0.848668
2003-01-24 11:39:48 51°19.571 2°37.521 -999 2.057842 13.430806 -0.814958
2003-01-24 11:40:47 51°19.697 2°37.777 -999 2.058367 13.434327 -0.848668
2003-01-24 11:41:48 51°19.829 2°38.04 -999 2.058472 13.434858 -0.848668
2003-01-24 11:42:47 51°19.956 2°38.293 -999 2.058157 13.432183 -0.848668
2003-01-24 11:43:48 51°20.088 2°38.558 -999 2.057947 13.430688 -0.814958
2003-01-24 11:44:48 51°20.218 2°38.818 -999 2.058787 13.436451 -0.848668
2003-01-24 11:45:48 51°20.348 2°39.079 -999 2.058262 13.432281 -0.882377
2003-01-24 11:46:48 51°20.479 2°39.339 -999 2.058472 13.433776 -0.882377
2003-01-24 11:47:48 51°20.598 2°39.61 -999 2.058577 13.434307 -0.848668
2003-01-24 11:48:49 51°20.607 2°39.947 -999 2.058682 13.434622 -0.848668
2003-01-24 11:49:48 51°20.58 2°40.279 -999 2.058472 13.433343 -0.848668
2003-01-24 11:50:48 51°20.544 2°40.615 -999 2.058367 13.43238 -0.848668
2003-01-24 11:51:47 51°20.505 2°40.943 -999 2.058577 13.433874 -0.848668
2003-01-24 11:52:47 51°20.465 2°41.274 -999 2.058577 13.433442 -0.848668
2003-01-24 11:53:48 51°20.424 2°41.608 -999 2.058577 13.433442 -0.848668
2003-01-24 11:54:48 51°20.39 2°41.938 -999 2.058367 13.431298 -0.848668
2003-01-24 11:55:47 51°20.353 2°42.263 -999 2.058367 13.431082 -0.848668
2003-01-24 11:56:47 51°20.311 2°42.596 -999 2.058682 13.432675 -0.814958
2003-01-24 11:57:48 51°20.272 2°42.939 -999 2.058787 13.433638 -0.848668
2003-01-24 11:58:47 51°20.233 2°43.266 -999 2.058997 13.433835 -0.848668
2003-01-24 11:59:48 51°20.191 2°43.605 -999 2.058997 13.434052 -0.848668
2003-01-24 12:00:47 51°20.158 2°43.934 -999 2.058787 13.431692 -0.814958
2003-01-24 12:01:48 51°20.125 2°44.274 -999 2.058577 13.429549 -0.848668
2003-01-24 12:02:47 51°20.092 2°44.602 -999 2.058892 13.431574 -0.848668
2003-01-24 12:03:48 51°20.061 2°44.94 -999 2.059312 13.434563 -0.848668
2003-01-24 12:04:47 51°20.03 2°45.267 -999 2.059207 13.432734 -0.814958
2003-01-24 12:05:48 51°20 2°45.606 -999 2.058682 13.428782 -0.814958
2003-01-24 12:06:48 51°19.968 2°45.935 -999 2.058997 13.430375 -0.848668
2003-01-24 12:07:47 51°19.935 2°46.258 -999 2.059207 13.43187 -0.848668
2003-01-24 12:08:47 51°19.896 2°46.589 -999 2.059522 13.433895 -0.848668
2003-01-24 12:09:47 51°19.819 2°46.906 -999 2.059102 13.430258 -0.848668
2003-01-24 12:10:48 51°19.708 2°47.208 -999 2.059207 13.431005 -0.848668
2003-01-24 12:11:47 51°19.602 2°47.502 -999 2.059102 13.429609 -0.848668
2003-01-24 12:12:47 51°19.484 2°47.793 -999 2.059312 13.42959 -0.848668
2003-01-24 12:13:47 51°19.357 2°48.077 -999 2.059312 13.429158 -0.848668
2003-01-24 12:14:48 51°19.23 2°48.368 -999 2.059312 13.427862 -0.848668
2003-01-24 12:15:47 51°19.109 2°48.65 -999 2.058892 13.423147 -0.848668
2003-01-24 12:16:48 51°18.983 2°48.943 -999 2.059207 13.424523 -0.848668
2003-01-24 12:17:48 51°18.855 2°49.228 -999 2.058577 13.418532 -0.882377
2003-01-24 12:18:48 51°18.729 2°49.512 -999 2.058577 13.417453 -0.814958
2003-01-24 12:19:49 51°18.596 2°49.809 -999 2.058262 13.413272 -0.814958
2003-01-24 12:20:48 51°18.474 2°50.101 -999 2.058262 13.409822 -0.848668
2003-01-24 12:21:48 51°18.351 2°50.396 -999 2.058367 13.407767 -0.814958
2003-01-24 12:22:48 51°18.202 2°50.669 -999 2.058157 13.40369 -0.814958
2003-01-24 12:23:48 51°18.048 2°50.94 -999 2.058472 13.402698 -0.848668
2003-01-24 12:24:48 51°17.905 2°51.222 -999 2.058262 13.396689 -0.882377
2003-01-24 12:25:48 51°17.765 2°51.505 -999 2.058472 13.395599 -0.882377
2003-01-24 12:26:48 51°17.621 2°51.786 -999 2.058472 13.39216 -0.848668
2003-01-24 12:27:48 51°17.46 2°52.054 -999 2.058892 13.392347 -0.814958
2003-01-24 12:28:48 51°17.272 2°52.278 -999 2.059101 13.388683 -0.814958
2003-01-24 12:29:48 51°17.064 2°52.46 -999 2.059311 13.388026 -0.848668
2003-01-24 12:30:48 51°16.878 2°52.686 -999 2.059521 13.386941 -0.848668
2003-01-24 12:31:48 51°16.678 2°52.877 16.613603 2.060152 13.390549 -0.848668
2003-01-24 12:32:48 51°16.465 2°53.065 17.285676 2.060256 13.388719 -0.848668
2003-01-24 12:33:48 51°16.257 2°53.248 16.844681 2.060677 13.38998 -0.848668
2003-01-24 12:34:48 51°16.052 2°53.427 16.814611 2.061202 13.392415 -0.814958
2003-01-24 12:35:48 51°15.848 2°53.604 17.204341 2.061412 13.393474 -0.848668
2003-01-24 12:36:48 51°15.647 2°53.78 17.307719 2.061517 13.39336 -0.814958
2003-01-24 12:37:48 51°15.448 2°53.951 16.973245 2.061727 13.393562 -0.814958
2003-01-24 12:38:48 51°15.253 2°54.113 17.047338 2.061937 13.394192 -0.814958
2003-01-24 12:39:48 51°15.066 2°54.275 17.326769 2.062357 13.396096 -0.848668
2003-01-24 12:40:48 51°14.881 2°54.433 16.987444 2.062987 13.40056 -0.848668
2003-01-24 12:41:48 51°14.692 2°54.594 16.927753 2.062882 13.398529 -0.848668
2003-01-24 12:42:48 51°14.52 2°54.774 17.212176 2.063197 13.400546 -0.848668
2003-01-24 12:43:48 51°14.402 2°54.99 17.0133 2.063407 13.401176 -0.814958
2003-01-24 12:44:49 51°14.316 2°55.197 15.257397 2.063827 13.403723 -0.882377
2003-01-24 12:45:52 51°14.233 2°55.343 15.274081 2.063932 13.402965 -0.814958
2003-01-24 12:46:52 51°14.146 2°55.413 15.277547 2.063932 13.402107 -0.848668
2003-01-24 12:47:51 51°14.057 2°55.472 15.278933 2.064037 13.401993 -0.848668
2003-01-24 12:48:52 51°13.956 2°55.544 15.277547 2.064142 13.401664 -0.848668